TVF8777 DTTA-LFLL
Flight info
| Callsign | TVF8777 |
|---|---|
| Flight time | 1h 38m |
| Altitude | 36000 |
| Route | ICANI3C ICANI B979 SIRVI UG727 NIBEL DCT ADAMI DCT VELAD DCT UNITA DCT IXITO DCT ANAKI DCT TOP/N0400F280 DCT RONOP/N0374F240 DCT GIGUS Z40 AMVAR |
| Aircraft | B738/M-SDFGHIJ1RWXY/LB1 |
Departure
| Time | 2026-05-06 07:33 |
|---|---|
| Airport | Tunis Carthage International Airport (DTTA) |
Arrival
| Time | 2026-05-06 09:12 |
|---|---|
| Airport | Lyon Saint-Exupéry Airport (LFLL) |
| Time | Latitude | Longitude | Altitude | Speed | Heading |
|---|---|---|---|---|---|
| 2026-05-06 07:06 | 36.84843 | 10.22107 | 28 ft | 0 kts | 255° |
| 2026-05-06 07:26 | 36.84843 | 10.22105 | 29 ft | 1 kts | 262° |
| 2026-05-06 07:26 | 36.84846 | 10.22087 | 29 ft | 3 kts | 283° |
| 2026-05-06 07:27 | 36.84857 | 10.22059 | 29 ft | 4 kts | 320° |
| 2026-05-06 07:27 | 36.84883 | 10.22060 | 29 ft | 4 kts | 24° |
| 2026-05-06 07:27 | 36.84900 | 10.22085 | 29 ft | 4 kts | 69° |
| 2026-05-06 07:27 | 36.84898 | 10.22126 | 29 ft | 6 kts | 99° |
| 2026-05-06 07:28 | 36.84889 | 10.22186 | 29 ft | 8 kts | 99° |
| 2026-05-06 07:28 | 36.84876 | 10.22267 | 29 ft | 11 kts | 103° |
| 2026-05-06 07:28 | 36.84958 | 10.22386 | 30 ft | 11 kts | 12° |
| 2026-05-06 07:29 | 36.85015 | 10.22339 | 30 ft | 11 kts | 291° |
| 2026-05-06 07:29 | 36.85046 | 10.22243 | 28 ft | 13 kts | 292° |
| 2026-05-06 07:29 | 36.85083 | 10.22133 | 30 ft | 15 kts | 292° |
| 2026-05-06 07:29 | 36.85123 | 10.22013 | 29 ft | 15 kts | 292° |
| 2026-05-06 07:30 | 36.85162 | 10.21897 | 29 ft | 14 kts | 292° |
| 2026-05-06 07:30 | 36.85199 | 10.21786 | 29 ft | 14 kts | 294° |
| 2026-05-06 07:30 | 36.85255 | 10.21713 | 29 ft | 12 kts | 348° |
| 2026-05-06 07:30 | 36.85317 | 10.21734 | 29 ft | 2 kts | 23° |
| 2026-05-06 07:31 | 36.85319 | 10.21735 | 29 ft | 0 kts | 23° |
| 2026-05-06 07:31 | 36.85331 | 10.21741 | 29 ft | 4 kts | 23° |
| 2026-05-06 07:32 | 36.85371 | 10.21763 | 30 ft | 8 kts | 24° |
| 2026-05-06 07:32 | 36.85413 | 10.21798 | 31 ft | 6 kts | 77° |
| 2026-05-06 07:32 | 36.85407 | 10.21822 | 31 ft | 0 kts | 110° |
| 2026-05-06 07:33 | 36.85382 | 10.21901 | 29 ft | 35 kts | 112° |
| 2026-05-06 07:33 | 36.85189 | 10.22482 | 35 ft | 108 kts | 112° |
| 2026-05-06 07:33 | 36.84820 | 10.23592 | 95 ft | 161 kts | 112° |
| 2026-05-06 07:33 | 36.84404 | 10.24869 | 910 ft | 156 kts | 113° |
| 2026-05-06 07:34 | 36.83992 | 10.26112 | 1724 ft | 164 kts | 115° |
| 2026-05-06 07:34 | 36.83506 | 10.27590 | 2008 ft | 202 kts | 114° |
| 2026-05-06 07:34 | 36.82934 | 10.29324 | 2236 ft | 231 kts | 114° |
| 2026-05-06 07:34 | 36.82301 | 10.31253 | 2762 ft | 246 kts | 114° |
| 2026-05-06 07:35 | 36.81645 | 10.33256 | 3640 ft | 251 kts | 114° |
| 2026-05-06 07:35 | 36.80978 | 10.35296 | 4543 ft | 256 kts | 114° |
| 2026-05-06 07:35 | 36.80519 | 10.37454 | 5412 ft | 264 kts | 94° |
| 2026-05-06 07:35 | 36.80896 | 10.39718 | 6238 ft | 274 kts | 64° |
| 2026-05-06 07:36 | 36.82141 | 10.41508 | 6968 ft | 285 kts | 33° |
| 2026-05-06 07:36 | 36.83944 | 10.42585 | 7757 ft | 292 kts | 22° |
| 2026-05-06 07:36 | 36.85828 | 10.43579 | 8580 ft | 296 kts | 21° |
| 2026-05-06 07:36 | 36.87742 | 10.44591 | 9375 ft | 302 kts | 21° |
| 2026-05-06 07:37 | 36.89695 | 10.45631 | 10138 ft | 308 kts | 20° |
| 2026-05-06 07:37 | 36.91677 | 10.46693 | 10925 ft | 311 kts | 20° |
| 2026-05-06 07:37 | 36.93668 | 10.47767 | 11734 ft | 313 kts | 20° |
| 2026-05-06 07:37 | 36.95682 | 10.48856 | 12519 ft | 317 kts | 20° |
| 2026-05-06 07:38 | 36.97717 | 10.49961 | 13294 ft | 321 kts | 20° |
| 2026-05-06 07:38 | 36.99778 | 10.51081 | 14005 ft | 325 kts | 20° |
| 2026-05-06 07:38 | 37.01831 | 10.52198 | 14690 ft | 328 kts | 20° |
| 2026-05-06 07:38 | 37.03931 | 10.53342 | 15380 ft | 331 kts | 20° |
| 2026-05-06 07:39 | 37.06049 | 10.54497 | 16062 ft | 334 kts | 20° |
| 2026-05-06 07:39 | 37.08221 | 10.55681 | 16418 ft | 351 kts | 20° |
| 2026-05-06 07:39 | 37.10528 | 10.56936 | 16586 ft | 372 kts | 20° |
| 2026-05-06 07:39 | 37.12959 | 10.58264 | 16872 ft | 389 kts | 21° |
| 2026-05-06 07:40 | 37.15463 | 10.59637 | 17413 ft | 395 kts | 21° |
| 2026-05-06 07:40 | 37.17992 | 10.61024 | 18125 ft | 398 kts | 21° |
| 2026-05-06 07:40 | 37.20482 | 10.62468 | 18741 ft | 401 kts | 23° |
| 2026-05-06 07:40 | 37.22998 | 10.64016 | 19328 ft | 405 kts | 24° |
| 2026-05-06 07:41 | 37.25529 | 10.65603 | 19894 ft | 409 kts | 24° |
| 2026-05-06 07:41 | 37.28086 | 10.67208 | 20450 ft | 413 kts | 24° |
| 2026-05-06 07:41 | 37.30666 | 10.68819 | 21025 ft | 416 kts | 24° |
| 2026-05-06 07:41 | 37.33265 | 10.70435 | 21590 ft | 419 kts | 24° |
| 2026-05-06 07:42 | 37.35890 | 10.72060 | 22136 ft | 422 kts | 24° |
| 2026-05-06 07:42 | 37.38536 | 10.73695 | 22653 ft | 426 kts | 24° |
| 2026-05-06 07:42 | 37.41206 | 10.75344 | 23192 ft | 429 kts | 24° |
| 2026-05-06 07:42 | 37.43899 | 10.77009 | 23681 ft | 433 kts | 24° |
| 2026-05-06 07:43 | 37.46570 | 10.78661 | 24140 ft | 435 kts | 24° |
| 2026-05-06 07:43 | 37.49302 | 10.80352 | 24535 ft | 439 kts | 24° |
| 2026-05-06 07:43 | 37.52051 | 10.82055 | 24983 ft | 441 kts | 23° |
| 2026-05-06 07:43 | 37.54809 | 10.83767 | 25467 ft | 442 kts | 23° |
| 2026-05-06 07:44 | 37.57574 | 10.85484 | 25925 ft | 444 kts | 23° |
| 2026-05-06 07:44 | 37.60350 | 10.87209 | 26350 ft | 446 kts | 23° |
| 2026-05-06 07:44 | 37.63141 | 10.88944 | 26768 ft | 448 kts | 23° |
| 2026-05-06 07:44 | 37.65945 | 10.90689 | 27187 ft | 450 kts | 23° |
| 2026-05-06 07:45 | 37.68761 | 10.92443 | 27616 ft | 452 kts | 23° |
| 2026-05-06 07:45 | 37.71571 | 10.94136 | 27949 ft | 454 kts | 19° |
| 2026-05-06 07:45 | 37.74574 | 10.95342 | 28299 ft | 452 kts | 9° |
| 2026-05-06 07:45 | 37.77670 | 10.95955 | 28710 ft | 449 kts | 359° |
| 2026-05-06 07:46 | 37.80780 | 10.96005 | 29115 ft | 447 kts | 355° |
| 2026-05-06 07:46 | 37.83895 | 10.95942 | 29484 ft | 449 kts | 354° |
| 2026-05-06 07:46 | 37.87025 | 10.95860 | 29832 ft | 451 kts | 354° |
| 2026-05-06 07:46 | 37.90170 | 10.95785 | 30145 ft | 453 kts | 355° |
| 2026-05-06 07:47 | 37.93329 | 10.95723 | 30441 ft | 455 kts | 355° |
| 2026-05-06 07:47 | 37.96501 | 10.95674 | 30726 ft | 457 kts | 355° |
| 2026-05-06 07:47 | 37.99683 | 10.95634 | 31009 ft | 458 kts | 355° |
| 2026-05-06 07:47 | 38.02879 | 10.95600 | 31281 ft | 460 kts | 355° |
| 2026-05-06 07:48 | 38.06038 | 10.95568 | 31574 ft | 460 kts | 355° |
| 2026-05-06 07:48 | 38.09238 | 10.95538 | 31958 ft | 459 kts | 355° |
| 2026-05-06 07:48 | 38.12421 | 10.95508 | 32382 ft | 456 kts | 355° |
| 2026-05-06 07:48 | 38.15590 | 10.95477 | 32770 ft | 455 kts | 354° |
| 2026-05-06 07:49 | 38.18767 | 10.95444 | 32995 ft | 458 kts | 354° |
| 2026-05-06 07:49 | 38.21956 | 10.95409 | 33275 ft | 458 kts | 354° |
| 2026-05-06 07:49 | 38.25140 | 10.95376 | 33664 ft | 456 kts | 354° |
| 2026-05-06 07:49 | 38.28264 | 10.95345 | 34060 ft | 454 kts | 354° |
| 2026-05-06 07:50 | 38.31418 | 10.95313 | 34344 ft | 453 kts | 354° |
| 2026-05-06 07:50 | 38.34573 | 10.95279 | 34576 ft | 454 kts | 354° |
| 2026-05-06 07:50 | 38.37732 | 10.95245 | 34836 ft | 454 kts | 354° |
| 2026-05-06 07:50 | 38.40884 | 10.95212 | 35131 ft | 453 kts | 354° |
| 2026-05-06 07:51 | 38.44035 | 10.95179 | 35386 ft | 453 kts | 354° |
| 2026-05-06 07:51 | 38.47184 | 10.95146 | 35638 ft | 452 kts | 354° |
| 2026-05-06 07:51 | 38.50326 | 10.95113 | 35904 ft | 452 kts | 354° |
| 2026-05-06 07:51 | 38.53467 | 10.95080 | 36158 ft | 451 kts | 354° |
| 2026-05-06 07:52 | 38.56564 | 10.95047 | 36394 ft | 451 kts | 354° |
| 2026-05-06 07:52 | 38.59699 | 10.95014 | 36634 ft | 451 kts | 354° |
| 2026-05-06 07:52 | 38.62835 | 10.94981 | 36870 ft | 451 kts | 355° |
| 2026-05-06 07:52 | 38.65977 | 10.94947 | 37021 ft | 453 kts | 355° |
| 2026-05-06 07:53 | 38.69130 | 10.94914 | 37187 ft | 454 kts | 355° |
| 2026-05-06 07:53 | 38.72288 | 10.94862 | 37408 ft | 453 kts | 354° |
| 2026-05-06 07:53 | 38.75433 | 10.94732 | 37653 ft | 451 kts | 353° |
| 2026-05-06 07:53 | 38.78566 | 10.94558 | 37868 ft | 451 kts | 352° |
| 2026-05-06 07:54 | 38.81662 | 10.94371 | 37985 ft | 452 kts | 352° |
| 2026-05-06 07:54 | 38.84812 | 10.94180 | 37989 ft | 454 kts | 353° |
| 2026-05-06 07:54 | 38.91140 | 10.93815 | 37996 ft | 456 kts | 353° |
| 2026-05-06 07:55 | 38.97487 | 10.93471 | 37990 ft | 457 kts | 353° |
| 2026-05-06 07:55 | 39.03848 | 10.93134 | 37988 ft | 458 kts | 353° |
| 2026-05-06 07:56 | 39.10176 | 10.92802 | 37988 ft | 459 kts | 353° |
| 2026-05-06 07:56 | 39.16557 | 10.92465 | 37989 ft | 459 kts | 353° |
| 2026-05-06 07:57 | 39.22941 | 10.92122 | 37985 ft | 459 kts | 353° |
| 2026-05-06 07:57 | 39.29329 | 10.91779 | 38004 ft | 459 kts | 353° |
| 2026-05-06 07:58 | 39.35719 | 10.91436 | 37989 ft | 460 kts | 353° |
| 2026-05-06 07:58 | 39.42070 | 10.91096 | 37989 ft | 460 kts | 353° |
| 2026-05-06 07:59 | 39.48466 | 10.90752 | 37990 ft | 460 kts | 353° |
| 2026-05-06 07:59 | 39.54863 | 10.90408 | 37999 ft | 460 kts | 353° |
| 2026-05-06 08:00 | 39.61268 | 10.90064 | 37999 ft | 461 kts | 353° |
| 2026-05-06 08:00 | 39.67635 | 10.89719 | 37998 ft | 461 kts | 353° |
| 2026-05-06 08:01 | 39.74051 | 10.89371 | 37996 ft | 462 kts | 353° |
| 2026-05-06 08:01 | 39.80477 | 10.89022 | 37986 ft | 462 kts | 353° |
| 2026-05-06 08:02 | 39.86912 | 10.88672 | 37983 ft | 463 kts | 353° |
| 2026-05-06 08:02 | 39.93309 | 10.88324 | 37991 ft | 464 kts | 353° |
| 2026-05-06 08:03 | 39.99762 | 10.87972 | 37990 ft | 465 kts | 354° |
| 2026-05-06 08:03 | 40.06227 | 10.87618 | 37988 ft | 465 kts | 354° |
| 2026-05-06 08:04 | 40.12703 | 10.87264 | 37988 ft | 466 kts | 354° |
| 2026-05-06 08:04 | 40.19149 | 10.86910 | 37985 ft | 467 kts | 354° |
| 2026-05-06 08:05 | 40.25647 | 10.86553 | 37985 ft | 468 kts | 354° |
| 2026-05-06 08:05 | 40.32156 | 10.86195 | 37984 ft | 468 kts | 354° |
| 2026-05-06 08:06 | 40.38667 | 10.85836 | 37984 ft | 468 kts | 354° |
| 2026-05-06 08:06 | 40.45138 | 10.85478 | 37984 ft | 469 kts | 354° |
| 2026-05-06 08:07 | 40.51659 | 10.85117 | 37981 ft | 469 kts | 354° |
| 2026-05-06 08:07 | 40.58176 | 10.84755 | 37978 ft | 469 kts | 354° |
| 2026-05-06 08:08 | 40.64689 | 10.84393 | 37993 ft | 468 kts | 354° |
| 2026-05-06 08:08 | 40.71205 | 10.84030 | 37982 ft | 468 kts | 354° |
| 2026-05-06 08:09 | 40.77671 | 10.83669 | 37979 ft | 468 kts | 354° |
| 2026-05-06 08:09 | 40.84177 | 10.83305 | 37995 ft | 468 kts | 354° |
| 2026-05-06 08:10 | 40.90684 | 10.82940 | 37980 ft | 468 kts | 354° |
| 2026-05-06 08:10 | 40.97191 | 10.82574 | 37977 ft | 468 kts | 354° |
| 2026-05-06 08:11 | 41.03651 | 10.82211 | 37976 ft | 468 kts | 354° |
| 2026-05-06 08:11 | 41.10154 | 10.81844 | 37982 ft | 468 kts | 354° |
| 2026-05-06 08:12 | 41.16663 | 10.81476 | 37976 ft | 468 kts | 354° |
| 2026-05-06 08:12 | 41.23173 | 10.81108 | 37975 ft | 468 kts | 354° |
| 2026-05-06 08:13 | 41.29642 | 10.80741 | 37987 ft | 468 kts | 353° |
| 2026-05-06 08:13 | 41.36157 | 10.80371 | 37959 ft | 469 kts | 353° |
| 2026-05-06 08:14 | 41.42676 | 10.79999 | 37975 ft | 469 kts | 353° |
| 2026-05-06 08:14 | 41.49196 | 10.79628 | 37989 ft | 469 kts | 353° |
| 2026-05-06 08:15 | 41.55515 | 10.78117 | 37978 ft | 456 kts | 334° |
| 2026-05-06 08:15 | 41.61102 | 10.74426 | 37973 ft | 450 kts | 326° |
| 2026-05-06 08:16 | 41.66609 | 10.70436 | 37970 ft | 450 kts | 326° |
| 2026-05-06 08:16 | 41.72139 | 10.66466 | 37979 ft | 451 kts | 326° |
| 2026-05-06 08:17 | 41.77691 | 10.62516 | 37963 ft | 452 kts | 326° |
| 2026-05-06 08:17 | 41.83252 | 10.58567 | 37962 ft | 453 kts | 326° |
| 2026-05-06 08:18 | 41.88782 | 10.54635 | 37951 ft | 453 kts | 326° |
| 2026-05-06 08:18 | 41.94352 | 10.50664 | 37966 ft | 454 kts | 326° |
| 2026-05-06 08:19 | 41.99928 | 10.46681 | 37953 ft | 454 kts | 326° |
| 2026-05-06 08:19 | 42.05500 | 10.42692 | 37946 ft | 454 kts | 326° |
| 2026-05-06 08:20 | 42.11032 | 10.38725 | 37940 ft | 453 kts | 326° |
| 2026-05-06 08:20 | 42.16596 | 10.34727 | 37944 ft | 453 kts | 326° |
| 2026-05-06 08:21 | 42.22158 | 10.30720 | 37933 ft | 453 kts | 326° |
| 2026-05-06 08:21 | 42.27713 | 10.26712 | 37920 ft | 453 kts | 326° |
| 2026-05-06 08:22 | 42.33263 | 10.22699 | 37917 ft | 452 kts | 326° |
| 2026-05-06 08:22 | 42.38767 | 10.18711 | 37930 ft | 452 kts | 326° |
| 2026-05-06 08:23 | 42.44308 | 10.14689 | 37919 ft | 452 kts | 326° |
| 2026-05-06 08:23 | 42.49843 | 10.10662 | 37914 ft | 451 kts | 326° |
| 2026-05-06 08:24 | 42.55372 | 10.06632 | 37912 ft | 451 kts | 326° |
| 2026-05-06 08:24 | 42.60861 | 10.02623 | 37917 ft | 451 kts | 325° |
| 2026-05-06 08:25 | 42.66385 | 9.98580 | 37917 ft | 451 kts | 325° |
| 2026-05-06 08:25 | 42.71903 | 9.94533 | 37903 ft | 451 kts | 325° |
| 2026-05-06 08:26 | 42.77415 | 9.90482 | 37906 ft | 450 kts | 325° |
| 2026-05-06 08:26 | 42.82923 | 9.86427 | 37916 ft | 450 kts | 325° |
| 2026-05-06 08:27 | 42.88395 | 9.82389 | 37933 ft | 450 kts | 324° |
| 2026-05-06 08:27 | 42.93899 | 9.78319 | 37923 ft | 450 kts | 324° |
| 2026-05-06 08:28 | 42.99396 | 9.74247 | 37897 ft | 449 kts | 324° |
| 2026-05-06 08:28 | 43.04882 | 9.70174 | 37914 ft | 449 kts | 324° |
| 2026-05-06 08:29 | 43.10321 | 9.66128 | 37909 ft | 448 kts | 324° |
| 2026-05-06 08:29 | 43.15785 | 9.62055 | 37904 ft | 446 kts | 324° |
| 2026-05-06 08:30 | 43.21231 | 9.57987 | 37906 ft | 445 kts | 324° |
| 2026-05-06 08:30 | 43.26665 | 9.53920 | 37917 ft | 445 kts | 323° |
| 2026-05-06 08:31 | 43.32052 | 9.49879 | 37901 ft | 444 kts | 323° |
| 2026-05-06 08:31 | 43.37465 | 9.45810 | 37910 ft | 443 kts | 324° |
| 2026-05-06 08:32 | 43.42911 | 9.41699 | 37911 ft | 450 kts | 324° |
| 2026-05-06 08:32 | 43.48444 | 9.37521 | 37914 ft | 456 kts | 324° |
| 2026-05-06 08:33 | 43.54001 | 9.33322 | 37898 ft | 461 kts | 324° |
| 2026-05-06 08:33 | 43.59600 | 9.29086 | 37891 ft | 456 kts | 324° |
| 2026-05-06 08:34 | 43.67842 | 9.22829 | 37894 ft | 449 kts | 323° |
| 2026-05-06 08:35 | 43.73313 | 9.18655 | 37882 ft | 449 kts | 323° |
| 2026-05-06 08:35 | 43.78746 | 9.14504 | 37899 ft | 449 kts | 323° |
| 2026-05-06 08:36 | 43.84219 | 9.10316 | 37890 ft | 450 kts | 323° |
| 2026-05-06 08:36 | 43.89702 | 9.06111 | 37877 ft | 452 kts | 324° |
| 2026-05-06 08:37 | 43.95140 | 9.01771 | 37868 ft | 447 kts | 317° |
| 2026-05-06 08:37 | 43.99866 | 8.96387 | 37877 ft | 442 kts | 311° |
| 2026-05-06 08:38 | 44.04539 | 8.90819 | 37872 ft | 445 kts | 312° |
| 2026-05-06 08:38 | 44.09295 | 8.85276 | 37883 ft | 447 kts | 313° |
| 2026-05-06 08:39 | 44.14076 | 8.79731 | 37871 ft | 448 kts | 312° |
| 2026-05-06 08:39 | 44.18027 | 8.75069 | 37864 ft | 448 kts | 312° |
| 2026-05-06 08:40 | 44.23557 | 8.68525 | 37858 ft | 450 kts | 312° |
| 2026-05-06 08:40 | 44.28340 | 8.62907 | 37852 ft | 450 kts | 312° |
| 2026-05-06 08:41 | 44.32317 | 8.58227 | 37861 ft | 450 kts | 312° |
| 2026-05-06 08:41 | 44.37094 | 8.52589 | 37859 ft | 450 kts | 312° |
| 2026-05-06 08:42 | 44.42642 | 8.46020 | 37857 ft | 450 kts | 312° |
| 2026-05-06 08:42 | 44.47417 | 8.40352 | 37845 ft | 450 kts | 312° |
| 2026-05-06 08:43 | 44.51382 | 8.35630 | 37831 ft | 449 kts | 311° |
| 2026-05-06 08:43 | 44.55471 | 8.29232 | 37833 ft | 437 kts | 301° |
| 2026-05-06 08:44 | 44.59787 | 8.21400 | 37831 ft | 436 kts | 300° |
| 2026-05-06 08:44 | 44.62910 | 8.15768 | 37816 ft | 436 kts | 301° |
| 2026-05-06 08:45 | 44.66636 | 8.09130 | 37814 ft | 436 kts | 301° |
| 2026-05-06 08:45 | 44.70396 | 8.02462 | 37823 ft | 435 kts | 301° |
| 2026-05-06 08:46 | 44.74152 | 7.95793 | 37859 ft | 435 kts | 301° |
| 2026-05-06 08:46 | 44.77905 | 7.89109 | 37829 ft | 436 kts | 301° |
| 2026-05-06 08:47 | 44.81630 | 7.82459 | 37826 ft | 436 kts | 301° |
| 2026-05-06 08:47 | 44.85381 | 7.75747 | 37832 ft | 436 kts | 301° |
| 2026-05-06 08:48 | 44.89135 | 7.69014 | 37833 ft | 437 kts | 301° |
| 2026-05-06 08:48 | 44.92888 | 7.62266 | 37839 ft | 438 kts | 301° |
| 2026-05-06 08:49 | 44.96653 | 7.55479 | 37844 ft | 440 kts | 301° |
| 2026-05-06 08:49 | 45.00428 | 7.48661 | 37867 ft | 442 kts | 301° |
| 2026-05-06 08:50 | 45.04186 | 7.41855 | 37880 ft | 442 kts | 301° |
| 2026-05-06 08:50 | 45.07971 | 7.34985 | 37895 ft | 443 kts | 301° |
| 2026-05-06 08:50 | 45.09869 | 7.31533 | 37711 ft | 447 kts | 301° |
| 2026-05-06 08:51 | 45.11788 | 7.28037 | 37205 ft | 449 kts | 301° |
| 2026-05-06 08:51 | 45.13701 | 7.24553 | 36655 ft | 447 kts | 301° |
| 2026-05-06 08:51 | 45.15609 | 7.21075 | 36088 ft | 447 kts | 301° |
| 2026-05-06 08:51 | 45.17480 | 7.17639 | 35512 ft | 446 kts | 299° |
| 2026-05-06 08:52 | 45.19129 | 7.13957 | 34860 ft | 438 kts | 289° |
| 2026-05-06 08:52 | 45.20343 | 7.10032 | 34219 ft | 433 kts | 284° |
| 2026-05-06 08:52 | 45.21458 | 7.06069 | 33487 ft | 434 kts | 284° |
| 2026-05-06 08:52 | 45.22567 | 7.02084 | 32770 ft | 435 kts | 283° |
| 2026-05-06 08:53 | 45.23686 | 6.98084 | 32035 ft | 437 kts | 284° |
| 2026-05-06 08:53 | 45.24819 | 6.94081 | 31360 ft | 438 kts | 284° |
| 2026-05-06 08:53 | 45.25963 | 6.90063 | 30607 ft | 440 kts | 284° |
| 2026-05-06 08:53 | 45.27098 | 6.86092 | 29817 ft | 440 kts | 284° |
| 2026-05-06 08:54 | 45.28249 | 6.82073 | 28931 ft | 438 kts | 284° |
| 2026-05-06 08:54 | 45.29396 | 6.78069 | 28072 ft | 438 kts | 285° |
| 2026-05-06 08:54 | 45.30536 | 6.74075 | 27210 ft | 437 kts | 285° |
| 2026-05-06 08:54 | 45.31671 | 6.70097 | 26645 ft | 430 kts | 285° |
| 2026-05-06 08:55 | 45.32787 | 6.66179 | 26007 ft | 426 kts | 286° |
| 2026-05-06 08:55 | 45.33890 | 6.62292 | 25419 ft | 422 kts | 286° |
| 2026-05-06 08:55 | 45.34982 | 6.58442 | 24867 ft | 417 kts | 287° |
| 2026-05-06 08:55 | 45.36060 | 6.54630 | 24284 ft | 415 kts | 288° |
| 2026-05-06 08:56 | 45.37120 | 6.50875 | 23673 ft | 414 kts | 289° |
| 2026-05-06 08:56 | 45.38067 | 6.47026 | 23002 ft | 412 kts | 281° |
| 2026-05-06 08:56 | 45.38495 | 6.42998 | 22510 ft | 413 kts | 271° |
| 2026-05-06 08:56 | 45.38464 | 6.38922 | 22095 ft | 411 kts | 261° |
| 2026-05-06 08:57 | 45.38041 | 6.34945 | 21595 ft | 403 kts | 258° |
| 2026-05-06 08:57 | 45.37561 | 6.31030 | 20965 ft | 400 kts | 258° |
| 2026-05-06 08:57 | 45.37075 | 6.27141 | 20297 ft | 398 kts | 258° |
| 2026-05-06 08:57 | 45.36629 | 6.23264 | 19634 ft | 396 kts | 262° |
| 2026-05-06 08:58 | 45.36550 | 6.19404 | 19061 ft | 395 kts | 268° |
| 2026-05-06 08:58 | 45.36551 | 6.15529 | 18490 ft | 390 kts | 268° |
| 2026-05-06 08:58 | 45.36554 | 6.11647 | 17523 ft | 394 kts | 268° |
| 2026-05-06 08:58 | 45.36550 | 6.07754 | 16754 ft | 393 kts | 268° |
| 2026-05-06 08:59 | 45.36537 | 6.03886 | 16085 ft | 389 kts | 267° |
| 2026-05-06 08:59 | 45.36517 | 6.00069 | 15471 ft | 384 kts | 267° |
| 2026-05-06 08:59 | 45.36492 | 5.96286 | 14841 ft | 380 kts | 267° |
| 2026-05-06 08:59 | 45.36463 | 5.92548 | 14220 ft | 376 kts | 267° |
| 2026-05-06 09:00 | 45.36432 | 5.88841 | 13497 ft | 374 kts | 268° |
| 2026-05-06 09:00 | 45.36400 | 5.85210 | 12898 ft | 370 kts | 267° |
| 2026-05-06 09:00 | 45.36368 | 5.81577 | 12253 ft | 366 kts | 267° |
| 2026-05-06 09:00 | 45.36357 | 5.77969 | 11579 ft | 364 kts | 268° |
| 2026-05-06 09:01 | 45.36315 | 5.74375 | 10977 ft | 362 kts | 267° |
| 2026-05-06 09:01 | 45.36268 | 5.70820 | 10404 ft | 358 kts | 267° |
| 2026-05-06 09:01 | 45.36226 | 5.67310 | 10068 ft | 349 kts | 268° |
| 2026-05-06 09:01 | 45.36191 | 5.63940 | 9950 ft | 333 kts | 268° |
| 2026-05-06 09:02 | 45.36158 | 5.60723 | 9912 ft | 317 kts | 267° |
| 2026-05-06 09:02 | 45.36125 | 5.57702 | 9898 ft | 302 kts | 267° |
| 2026-05-06 09:02 | 45.36093 | 5.54785 | 9894 ft | 288 kts | 267° |
| 2026-05-06 09:02 | 45.36061 | 5.52005 | 9899 ft | 275 kts | 267° |
| 2026-05-06 09:03 | 45.36048 | 5.49343 | 9895 ft | 266 kts | 272° |
| 2026-05-06 09:03 | 45.36515 | 5.46808 | 9871 ft | 266 kts | 289° |
| 2026-05-06 09:03 | 45.37223 | 5.44388 | 9713 ft | 264 kts | 290° |
| 2026-05-06 09:03 | 45.38108 | 5.42106 | 9258 ft | 265 kts | 302° |
| 2026-05-06 09:04 | 45.39171 | 5.39969 | 8776 ft | 264 kts | 304° |
| 2026-05-06 09:04 | 45.40246 | 5.37850 | 8349 ft | 265 kts | 304° |
| 2026-05-06 09:04 | 45.41315 | 5.35720 | 8103 ft | 263 kts | 303° |
| 2026-05-06 09:04 | 45.42372 | 5.33616 | 7844 ft | 260 kts | 303° |
| 2026-05-06 09:05 | 45.43379 | 5.31536 | 7497 ft | 257 kts | 302° |
| 2026-05-06 09:05 | 45.44392 | 5.29418 | 7102 ft | 257 kts | 306° |
| 2026-05-06 09:05 | 45.45429 | 5.27393 | 6845 ft | 250 kts | 302° |
| 2026-05-06 09:05 | 45.46399 | 5.25313 | 6485 ft | 249 kts | 302° |
| 2026-05-06 09:06 | 45.47407 | 5.23303 | 6066 ft | 251 kts | 306° |
| 2026-05-06 09:06 | 45.48387 | 5.21271 | 5807 ft | 247 kts | 301° |
| 2026-05-06 09:06 | 45.49329 | 5.19246 | 5481 ft | 244 kts | 303° |
| 2026-05-06 09:06 | 45.50273 | 5.17250 | 5103 ft | 242 kts | 303° |
| 2026-05-06 09:07 | 45.51201 | 5.15323 | 4810 ft | 237 kts | 304° |
| 2026-05-06 09:07 | 45.52129 | 5.13408 | 4542 ft | 231 kts | 306° |
| 2026-05-06 09:07 | 45.53317 | 5.11993 | 4356 ft | 220 kts | 338° |
| 2026-05-06 09:07 | 45.54799 | 5.11603 | 4074 ft | 212 kts | 350° |
| 2026-05-06 09:08 | 45.56215 | 5.11334 | 3810 ft | 198 kts | 351° |
| 2026-05-06 09:08 | 45.57540 | 5.11152 | 3558 ft | 184 kts | 352° |
| 2026-05-06 09:08 | 45.58774 | 5.10995 | 3326 ft | 172 kts | 352° |
| 2026-05-06 09:08 | 45.59925 | 5.10856 | 3088 ft | 160 kts | 352° |
| 2026-05-06 09:09 | 45.60993 | 5.10723 | 2882 ft | 153 kts | 352° |
| 2026-05-06 09:09 | 45.62045 | 5.10594 | 2676 ft | 149 kts | 351° |
| 2026-05-06 09:09 | 45.63054 | 5.10468 | 2466 ft | 143 kts | 352° |
| 2026-05-06 09:09 | 45.64036 | 5.10350 | 2314 ft | 140 kts | 352° |
| 2026-05-06 09:10 | 45.65019 | 5.10229 | 2092 ft | 142 kts | 351° |
| 2026-05-06 09:10 | 45.66014 | 5.10104 | 1884 ft | 146 kts | 353° |
| 2026-05-06 09:10 | 45.67028 | 5.09984 | 1695 ft | 145 kts | 351° |
| 2026-05-06 09:10 | 45.68040 | 5.09849 | 1519 ft | 147 kts | 352° |
| 2026-05-06 09:11 | 45.69064 | 5.09735 | 1267 ft | 146 kts | 352° |
| 2026-05-06 09:11 | 45.70086 | 5.09602 | 1095 ft | 151 kts | 353° |
| 2026-05-06 09:11 | 45.71148 | 5.09473 | 873 ft | 153 kts | 354° |
| 2026-05-06 09:11 | 45.72151 | 5.09353 | 813 ft | 126 kts | 355° |
| 2026-05-06 09:12 | 45.72828 | 5.09271 | 802 ft | 70 kts | 355° |
| 2026-05-06 09:12 | 45.73156 | 5.09231 | 793 ft | 37 kts | 355° |
| 2026-05-06 09:12 | 45.73400 | 5.09201 | 786 ft | 31 kts | 355° |
| 2026-05-06 09:12 | 45.73495 | 5.09133 | 785 ft | 13 kts | 299° |
| 2026-05-06 09:13 | 45.73541 | 5.09020 | 782 ft | 15 kts | 301° |
| 2026-05-06 09:13 | 45.73600 | 5.08877 | 777 ft | 18 kts | 300° |
| 2026-05-06 09:13 | 45.73660 | 5.08726 | 777 ft | 17 kts | 296° |
| 2026-05-06 09:13 | 45.73698 | 5.08565 | 775 ft | 17 kts | 286° |
| 2026-05-06 09:14 | 45.73726 | 5.08406 | 776 ft | 16 kts | 283° |
| 2026-05-06 09:14 | 45.73691 | 5.08274 | 776 ft | 15 kts | 212° |
| 2026-05-06 09:14 | 45.73593 | 5.08263 | 779 ft | 14 kts | 175° |
| 2026-05-06 09:14 | 45.73478 | 5.08276 | 779 ft | 20 kts | 175° |
| 2026-05-06 09:15 | 45.73324 | 5.08295 | 781 ft | 24 kts | 175° |
| 2026-05-06 09:15 | 45.73156 | 5.08316 | 784 ft | 23 kts | 175° |
| 2026-05-06 09:15 | 45.72997 | 5.08335 | 787 ft | 23 kts | 175° |
| 2026-05-06 09:15 | 45.72845 | 5.08354 | 789 ft | 22 kts | 175° |
| 2026-05-06 09:16 | 45.72695 | 5.08371 | 790 ft | 21 kts | 175° |
| 2026-05-06 09:16 | 45.72550 | 5.08390 | 795 ft | 21 kts | 175° |
| 2026-05-06 09:16 | 45.72409 | 5.08406 | 796 ft | 20 kts | 175° |
| 2026-05-06 09:16 | 45.72272 | 5.08423 | 798 ft | 19 kts | 175° |
| 2026-05-06 09:17 | 45.72139 | 5.08440 | 801 ft | 19 kts | 175° |
| 2026-05-06 09:17 | 45.72011 | 5.08455 | 801 ft | 18 kts | 175° |
| 2026-05-06 09:17 | 45.71890 | 5.08470 | 801 ft | 17 kts | 175° |
| 2026-05-06 09:17 | 45.71772 | 5.08484 | 801 ft | 16 kts | 175° |
| 2026-05-06 09:18 | 45.71691 | 5.08453 | 800 ft | 12 kts | 239° |
| 2026-05-06 09:18 | 45.71671 | 5.08360 | 799 ft | 8 kts | 218° |
| 2026-05-06 09:18 | 45.71620 | 5.08337 | 799 ft | 7 kts | 195° |
| 2026-05-06 09:18 | 45.71587 | 5.08325 | 800 ft | 2 kts | 195° |
| 2026-05-06 09:19 | 45.71584 | 5.08324 | 800 ft | 0 kts | 195° |